sensor_id;sensor_type;location;lat;lon;timestamp;P1;durP1;ratioP1;P2;durP2;ratioP2
25627;SDS011;40915;50.826;4.356;2022-07-23T00:00:02;13.40;;;11.88;;
25627;SDS011;40915;50.826;4.356;2022-07-23T00:02:30;18.30;;;13.57;;
25627;SDS011;40915;50.826;4.356;2022-07-23T00:04:55;15.32;;;12.60;;
25627;SDS011;40915;50.826;4.356;2022-07-23T00:07:21;15.20;;;12.00;;
25627;SDS011;40915;50.826;4.356;2022-07-23T00:09:46;17.63;;;12.93;;
25627;SDS011;40915;50.826;4.356;2022-07-23T00:12:12;15.88;;;12.82;;
25627;SDS011;40915;50.826;4.356;2022-07-23T00:14:37;17.50;;;13.27;;
25627;SDS011;40915;50.826;4.356;2022-07-23T00:17:03;15.50;;;13.07;;
25627;SDS011;40915;50.826;4.356;2022-07-23T00:19:29;16.02;;;12.80;;
25627;SDS011;40915;50.826;4.356;2022-07-23T00:21:54;18.40;;;13.02;;
25627;SDS011;40915;50.826;4.356;2022-07-23T00:24:20;18.05;;;13.32;;
25627;SDS011;40915;50.826;4.356;2022-07-23T00:26:46;15.77;;;12.98;;
25627;SDS011;40915;50.826;4.356;2022-07-23T00:29:11;16.50;;;13.15;;
25627;SDS011;40915;50.826;4.356;2022-07-23T00:31:37;14.35;;;12.52;;
25627;SDS011;40915;50.826;4.356;2022-07-23T00:34:03;17.55;;;13.60;;
25627;SDS011;40915;50.826;4.356;2022-07-23T00:36:28;16.00;;;13.60;;
25627;SDS011;40915;50.826;4.356;2022-07-23T00:38:56;16.75;;;13.00;;
25627;SDS011;40915;50.826;4.356;2022-07-23T00:41:22;17.95;;;13.70;;
25627;SDS011;40915;50.826;4.356;2022-07-23T00:43:47;17.92;;;13.57;;
25627;SDS011;40915;50.826;4.356;2022-07-23T00:46:18;15.75;;;13.48;;
25627;SDS011;40915;50.826;4.356;2022-07-23T00:48:47;17.13;;;12.55;;
25627;SDS011;40915;50.826;4.356;2022-07-23T00:51:15;17.27;;;12.95;;
25627;SDS011;40915;50.826;4.356;2022-07-23T00:53:41;14.88;;;12.07;;
25627;SDS011;40915;50.826;4.356;2022-07-23T00:56:07;15.00;;;12.70;;
25627;SDS011;40915;50.826;4.356;2022-07-23T00:58:34;17.67;;;12.60;;
25627;SDS011;40915;50.826;4.356;2022-07-23T01:01:00;14.48;;;12.93;;
25627;SDS011;40915;50.826;4.356;2022-07-23T01:03:27;16.50;;;13.27;;
25627;SDS011;40915;50.826;4.356;2022-07-23T01:05:52;14.70;;;11.88;;
25627;SDS011;40915;50.826;4.356;2022-07-23T01:08:18;16.73;;;13.10;;
25627;SDS011;40915;50.826;4.356;2022-07-23T01:10:46;17.02;;;12.98;;
25627;SDS011;40915;50.826;4.356;2022-07-23T01:13:13;20.20;;;13.32;;
25627;SDS011;40915;50.826;4.356;2022-07-23T01:15:39;17.23;;;12.98;;
25627;SDS011;40915;50.826;4.356;2022-07-23T01:18:07;17.90;;;13.50;;
25627;SDS011;40915;50.826;4.356;2022-07-23T01:20:33;16.58;;;14.10;;
25627;SDS011;40915;50.826;4.356;2022-07-23T01:22:59;16.92;;;13.10;;
25627;SDS011;40915;50.826;4.356;2022-07-23T01:25:26;19.48;;;13.85;;
25627;SDS011;40915;50.826;4.356;2022-07-23T01:27:52;18.10;;;13.38;;
25627;SDS011;40915;50.826;4.356;2022-07-23T01:30:19;19.48;;;13.70;;
25627;SDS011;40915;50.826;4.356;2022-07-23T01:32:45;16.65;;;13.32;;
25627;SDS011;40915;50.826;4.356;2022-07-23T01:35:11;17.40;;;13.27;;
25627;SDS011;40915;50.826;4.356;2022-07-23T01:37:37;17.27;;;13.63;;
25627;SDS011;40915;50.826;4.356;2022-07-23T01:40:04;16.23;;;13.45;;
25627;SDS011;40915;50.826;4.356;2022-07-23T01:42:30;17.10;;;13.23;;
25627;SDS011;40915;50.826;4.356;2022-07-23T01:44:56;17.50;;;13.85;;
25627;SDS011;40915;50.826;4.356;2022-07-23T01:47:22;17.00;;;13.88;;
25627;SDS011;40915;50.826;4.356;2022-07-23T01:49:48;19.45;;;13.77;;
25627;SDS011;40915;50.826;4.356;2022-07-23T01:52:14;18.75;;;14.32;;
25627;SDS011;40915;50.826;4.356;2022-07-23T01:54:41;15.20;;;13.57;;
25627;SDS011;40915;50.826;4.356;2022-07-23T01:57:07;16.15;;;13.23;;
25627;SDS011;40915;50.826;4.356;2022-07-23T01:59:33;16.13;;;13.55;;
25627;SDS011;40915;50.826;4.356;2022-07-23T02:01:59;16.95;;;13.30;;
25627;SDS011;40915;50.826;4.356;2022-07-23T02:04:25;19.20;;;13.75;;
25627;SDS011;40915;50.826;4.356;2022-07-23T02:06:51;18.08;;;13.55;;
25627;SDS011;40915;50.826;4.356;2022-07-23T02:09:18;19.10;;;13.98;;
25627;SDS011;40915;50.826;4.356;2022-07-23T02:11:43;19.65;;;14.70;;
25627;SDS011;40915;50.826;4.356;2022-07-23T02:14:09;18.33;;;14.65;;
25627;SDS011;40915;50.826;4.356;2022-07-23T02:16:34;18.35;;;14.15;;
25627;SDS011;40915;50.826;4.356;2022-07-23T02:19:00;17.30;;;14.80;;
25627;SDS011;40915;50.826;4.356;2022-07-23T02:21:26;17.63;;;14.18;;
25627;SDS011;40915;50.826;4.356;2022-07-23T02:23:51;18.85;;;15.05;;
25627;SDS011;40915;50.826;4.356;2022-07-23T02:26:17;17.40;;;14.52;;
25627;SDS011;40915;50.826;4.356;2022-07-23T02:28:43;20.65;;;15.02;;
25627;SDS011;40915;50.826;4.356;2022-07-23T02:31:08;19.25;;;14.35;;
25627;SDS011;40915;50.826;4.356;2022-07-23T02:33:34;18.60;;;14.52;;
25627;SDS011;40915;50.826;4.356;2022-07-23T02:35:59;18.58;;;14.38;;
25627;SDS011;40915;50.826;4.356;2022-07-23T02:38:25;18.60;;;15.30;;
25627;SDS011;40915;50.826;4.356;2022-07-23T02:40:51;18.85;;;13.77;;
25627;SDS011;40915;50.826;4.356;2022-07-23T02:43:17;19.50;;;14.52;;
25627;SDS011;40915;50.826;4.356;2022-07-23T02:45:42;17.95;;;14.48;;
25627;SDS011;40915;50.826;4.356;2022-07-23T02:48:08;18.15;;;14.20;;
25627;SDS011;40915;50.826;4.356;2022-07-23T02:50:33;20.70;;;14.57;;
25627;SDS011;40915;50.826;4.356;2022-07-23T02:52:59;21.67;;;15.70;;
25627;SDS011;40915;50.826;4.356;2022-07-23T02:55:25;17.90;;;14.18;;
25627;SDS011;40915;50.826;4.356;2022-07-23T02:57:51;18.33;;;13.90;;
25627;SDS011;40915;50.826;4.356;2022-07-23T03:00:17;19.45;;;14.18;;
25627;SDS011;40915;50.826;4.356;2022-07-23T03:02:43;19.13;;;14.68;;
25627;SDS011;40915;50.826;4.356;2022-07-23T03:05:09;20.33;;;14.38;;
25627;SDS011;40915;50.826;4.356;2022-07-23T03:07:35;16.85;;;13.45;;
25627;SDS011;40915;50.826;4.356;2022-07-23T03:10:00;20.13;;;14.80;;
25627;SDS011;40915;50.826;4.356;2022-07-23T03:12:26;20.77;;;14.25;;
25627;SDS011;40915;50.826;4.356;2022-07-23T03:14:52;19.25;;;15.15;;
25627;SDS011;40915;50.826;4.356;2022-07-23T03:17:17;21.02;;;14.93;;
25627;SDS011;40915;50.826;4.356;2022-07-23T03:19:43;16.92;;;13.57;;
25627;SDS011;40915;50.826;4.356;2022-07-23T03:22:09;18.98;;;13.85;;
25627;SDS011;40915;50.826;4.356;2022-07-23T03:24:34;19.05;;;14.35;;
25627;SDS011;40915;50.826;4.356;2022-07-23T03:27:19;18.33;;;13.88;;
25627;SDS011;40915;50.826;4.356;2022-07-23T03:29:45;20.10;;;14.20;;
25627;SDS011;40915;50.826;4.356;2022-07-23T03:32:11;20.55;;;15.38;;
25627;SDS011;40915;50.826;4.356;2022-07-23T03:34:36;19.75;;;14.27;;
25627;SDS011;40915;50.826;4.356;2022-07-23T03:37:03;17.00;;;14.60;;
25627;SDS011;40915;50.826;4.356;2022-07-23T03:39:28;21.90;;;15.25;;
25627;SDS011;40915;50.826;4.356;2022-07-23T03:41:54;19.85;;;15.82;;
25627;SDS011;40915;50.826;4.356;2022-07-23T03:44:20;16.58;;;14.05;;
25627;SDS011;40915;50.826;4.356;2022-07-23T03:46:47;20.65;;;14.93;;
25627;SDS011;40915;50.826;4.356;2022-07-23T03:49:12;18.15;;;14.85;;
25627;SDS011;40915;50.826;4.356;2022-07-23T03:51:38;20.02;;;14.75;;
25627;SDS011;40915;50.826;4.356;2022-07-23T03:54:04;19.67;;;14.40;;
25627;SDS011;40915;50.826;4.356;2022-07-23T03:56:29;17.90;;;13.52;;
25627;SDS011;40915;50.826;4.356;2022-07-23T03:58:55;18.40;;;14.13;;
25627;SDS011;40915;50.826;4.356;2022-07-23T04:01:21;16.75;;;13.50;;
25627;SDS011;40915;50.826;4.356;2022-07-23T04:03:46;16.88;;;13.55;;
25627;SDS011;40915;50.826;4.356;2022-07-23T04:06:12;18.60;;;13.77;;
25627;SDS011;40915;50.826;4.356;2022-07-23T04:08:38;21.42;;;14.13;;
25627;SDS011;40915;50.826;4.356;2022-07-23T04:11:03;18.92;;;14.60;;
25627;SDS011;40915;50.826;4.356;2022-07-23T04:13:29;20.98;;;13.88;;
25627;SDS011;40915;50.826;4.356;2022-07-23T04:15:55;19.38;;;14.32;;
25627;SDS011;40915;50.826;4.356;2022-07-23T04:18:21;17.20;;;12.93;;
25627;SDS011;40915;50.826;4.356;2022-07-23T04:20:48;19.02;;;13.43;;
25627;SDS011;40915;50.826;4.356;2022-07-23T04:23:16;17.52;;;13.40;;
25627;SDS011;40915;50.826;4.356;2022-07-23T04:25:41;20.40;;;13.90;;
25627;SDS011;40915;50.826;4.356;2022-07-23T04:28:08;18.00;;;14.18;;
25627;SDS011;40915;50.826;4.356;2022-07-23T04:30:33;18.48;;;14.38;;
25627;SDS011;40915;50.826;4.356;2022-07-23T04:32:59;17.38;;;13.93;;
25627;SDS011;40915;50.826;4.356;2022-07-23T04:35:25;20.83;;;14.82;;
25627;SDS011;40915;50.826;4.356;2022-07-23T04:37:51;15.55;;;13.02;;
25627;SDS011;40915;50.826;4.356;2022-07-23T04:40:16;22.40;;;13.73;;
25627;SDS011;40915;50.826;4.356;2022-07-23T04:42:42;17.98;;;13.43;;
25627;SDS011;40915;50.826;4.356;2022-07-23T04:45:08;18.48;;;13.48;;
25627;SDS011;40915;50.826;4.356;2022-07-23T04:47:34;17.05;;;13.82;;
25627;SDS011;40915;50.826;4.356;2022-07-23T04:49:59;18.80;;;13.73;;
25627;SDS011;40915;50.826;4.356;2022-07-23T04:52:25;17.42;;;13.02;;
25627;SDS011;40915;50.826;4.356;2022-07-23T04:54:51;16.17;;;12.50;;
25627;SDS011;40915;50.826;4.356;2022-07-23T04:57:16;16.33;;;12.95;;
25627;SDS011;40915;50.826;4.356;2022-07-23T04:59:42;16.40;;;13.20;;
25627;SDS011;40915;50.826;4.356;2022-07-23T05:02:07;16.30;;;13.00;;
25627;SDS011;40915;50.826;4.356;2022-07-23T05:04:33;18.23;;;12.35;;
25627;SDS011;40915;50.826;4.356;2022-07-23T05:06:59;15.85;;;13.20;;
25627;SDS011;40915;50.826;4.356;2022-07-23T05:09:25;14.70;;;11.45;;
25627;SDS011;40915;50.826;4.356;2022-07-23T05:11:50;15.27;;;12.35;;
25627;SDS011;40915;50.826;4.356;2022-07-23T05:14:16;17.50;;;11.32;;
25627;SDS011;40915;50.826;4.356;2022-07-23T05:16:42;17.95;;;11.68;;
25627;SDS011;40915;50.826;4.356;2022-07-23T05:19:07;13.90;;;11.40;;
25627;SDS011;40915;50.826;4.356;2022-07-23T05:21:33;13.77;;;12.00;;
25627;SDS011;40915;50.826;4.356;2022-07-23T05:23:59;13.52;;;11.27;;
25627;SDS011;40915;50.826;4.356;2022-07-23T05:26:25;16.80;;;11.93;;
25627;SDS011;40915;50.826;4.356;2022-07-23T05:28:50;17.42;;;12.40;;
25627;SDS011;40915;50.826;4.356;2022-07-23T05:31:16;15.70;;;11.40;;
25627;SDS011;40915;50.826;4.356;2022-07-23T05:33:42;16.80;;;11.18;;
25627;SDS011;40915;50.826;4.356;2022-07-23T05:36:08;13.80;;;11.38;;
25627;SDS011;40915;50.826;4.356;2022-07-23T05:38:34;12.75;;;11.30;;
25627;SDS011;40915;50.826;4.356;2022-07-23T05:41:00;14.90;;;11.45;;
25627;SDS011;40915;50.826;4.356;2022-07-23T05:43:26;13.50;;;10.63;;
25627;SDS011;40915;50.826;4.356;2022-07-23T05:45:51;15.85;;;11.63;;
25627;SDS011;40915;50.826;4.356;2022-07-23T05:48:17;14.27;;;10.75;;
25627;SDS011;40915;50.826;4.356;2022-07-23T05:50:43;15.75;;;11.63;;
25627;SDS011;40915;50.826;4.356;2022-07-23T05:53:09;11.57;;;10.18;;
25627;SDS011;40915;50.826;4.356;2022-07-23T05:55:34;12.15;;;10.40;;
25627;SDS011;40915;50.826;4.356;2022-07-23T05:58:00;12.98;;;10.70;;
25627;SDS011;40915;50.826;4.356;2022-07-23T06:00:26;16.27;;;11.77;;
25627;SDS011;40915;50.826;4.356;2022-07-23T06:02:52;16.38;;;11.30;;
25627;SDS011;40915;50.826;4.356;2022-07-23T06:05:18;14.13;;;10.45;;
25627;SDS011;40915;50.826;4.356;2022-07-23T06:07:44;15.82;;;11.05;;
25627;SDS011;40915;50.826;4.356;2022-07-23T06:10:10;16.27;;;11.80;;
25627;SDS011;40915;50.826;4.356;2022-07-23T06:12:35;14.80;;;10.23;;
25627;SDS011;40915;50.826;4.356;2022-07-23T06:15:01;12.80;;;9.95;;
25627;SDS011;40915;50.826;4.356;2022-07-23T06:17:27;13.30;;;8.68;;
25627;SDS011;40915;50.826;4.356;2022-07-23T06:19:53;11.95;;;9.05;;
25627;SDS011;40915;50.826;4.356;2022-07-23T06:22:19;11.60;;;9.10;;
25627;SDS011;40915;50.826;4.356;2022-07-23T06:24:45;13.18;;;9.00;;
25627;SDS011;40915;50.826;4.356;2022-07-23T06:27:11;13.30;;;9.38;;
25627;SDS011;40915;50.826;4.356;2022-07-23T06:29:36;11.95;;;8.35;;
25627;SDS011;40915;50.826;4.356;2022-07-23T06:32:02;12.68;;;9.48;;
25627;SDS011;40915;50.826;4.356;2022-07-23T06:34:30;10.73;;;8.45;;
25627;SDS011;40915;50.826;4.356;2022-07-23T06:36:56;9.98;;;8.45;;
25627;SDS011;40915;50.826;4.356;2022-07-23T06:39:22;12.15;;;9.70;;
25627;SDS011;40915;50.826;4.356;2022-07-23T06:41:48;12.75;;;10.65;;
25627;SDS011;40915;50.826;4.356;2022-07-23T06:44:14;11.50;;;9.45;;
25627;SDS011;40915;50.826;4.356;2022-07-23T06:46:40;11.90;;;9.75;;
25627;SDS011;40915;50.826;4.356;2022-07-23T06:49:06;12.15;;;10.00;;
25627;SDS011;40915;50.826;4.356;2022-07-23T06:51:32;12.27;;;9.85;;
25627;SDS011;40915;50.826;4.356;2022-07-23T06:53:58;12.15;;;9.60;;
25627;SDS011;40915;50.826;4.356;2022-07-23T06:56:24;12.10;;;9.43;;
25627;SDS011;40915;50.826;4.356;2022-07-23T06:58:50;12.82;;;8.63;;
25627;SDS011;40915;50.826;4.356;2022-07-23T07:01:16;13.48;;;9.45;;
25627;SDS011;40915;50.826;4.356;2022-07-23T07:03:42;12.18;;;9.43;;
25627;SDS011;40915;50.826;4.356;2022-07-23T07:06:08;13.60;;;8.07;;
25627;SDS011;40915;50.826;4.356;2022-07-23T07:08:35;13.30;;;8.73;;
25627;SDS011;40915;50.826;4.356;2022-07-23T07:11:01;10.75;;;9.50;;
25627;SDS011;40915;50.826;4.356;2022-07-23T07:13:27;11.88;;;9.15;;
25627;SDS011;40915;50.826;4.356;2022-07-23T07:15:53;12.25;;;9.52;;
25627;SDS011;40915;50.826;4.356;2022-07-23T07:18:19;14.93;;;8.77;;
25627;SDS011;40915;50.826;4.356;2022-07-23T07:20:45;9.95;;;8.57;;
25627;SDS011;40915;50.826;4.356;2022-07-23T07:23:11;9.80;;;8.63;;
25627;SDS011;40915;50.826;4.356;2022-07-23T07:25:37;9.52;;;8.48;;
25627;SDS011;40915;50.826;4.356;2022-07-23T07:28:03;12.80;;;9.13;;
25627;SDS011;40915;50.826;4.356;2022-07-23T07:30:29;11.10;;;8.85;;
25627;SDS011;40915;50.826;4.356;2022-07-23T07:32:55;11.85;;;7.53;;
25627;SDS011;40915;50.826;4.356;2022-07-23T07:35:22;10.02;;;8.73;;
25627;SDS011;40915;50.826;4.356;2022-07-23T07:37:48;11.23;;;8.70;;
25627;SDS011;40915;50.826;4.356;2022-07-23T07:40:13;11.25;;;9.02;;
25627;SDS011;40915;50.826;4.356;2022-07-23T07:42:50;10.15;;;8.18;;
25627;SDS011;40915;50.826;4.356;2022-07-23T07:45:16;7.70;;;6.93;;
25627;SDS011;40915;50.826;4.356;2022-07-23T07:47:42;12.63;;;6.88;;
25627;SDS011;40915;50.826;4.356;2022-07-23T07:50:10;10.60;;;8.40;;
25627;SDS011;40915;50.826;4.356;2022-07-23T07:52:36;9.57;;;7.80;;
25627;SDS011;40915;50.826;4.356;2022-07-23T07:55:03;11.10;;;7.55;;
25627;SDS011;40915;50.826;4.356;2022-07-23T07:57:29;10.65;;;7.80;;
25627;SDS011;40915;50.826;4.356;2022-07-23T07:59:55;10.85;;;8.85;;
25627;SDS011;40915;50.826;4.356;2022-07-23T08:02:21;13.10;;;8.18;;
25627;SDS011;40915;50.826;4.356;2022-07-23T08:04:47;8.50;;;6.93;;
25627;SDS011;40915;50.826;4.356;2022-07-23T08:07:14;11.90;;;8.15;;
25627;SDS011;40915;50.826;4.356;2022-07-23T08:09:40;11.48;;;8.05;;
25627;SDS011;40915;50.826;4.356;2022-07-23T08:12:06;10.30;;;8.02;;
25627;SDS011;40915;50.826;4.356;2022-07-23T08:14:32;9.50;;;7.80;;
25627;SDS011;40915;50.826;4.356;2022-07-23T08:16:58;8.60;;;5.57;;
25627;SDS011;40915;50.826;4.356;2022-07-23T08:19:24;12.43;;;8.50;;
25627;SDS011;40915;50.826;4.356;2022-07-23T08:21:50;11.15;;;7.53;;
25627;SDS011;40915;50.826;4.356;2022-07-23T08:24:16;8.13;;;6.00;;
25627;SDS011;40915;50.826;4.356;2022-07-23T08:26:43;10.63;;;7.90;;
25627;SDS011;40915;50.826;4.356;2022-07-23T08:29:11;7.53;;;6.00;;
25627;SDS011;40915;50.826;4.356;2022-07-23T08:31:37;11.35;;;7.55;;
25627;SDS011;40915;50.826;4.356;2022-07-23T08:34:05;10.32;;;7.80;;
25627;SDS011;40915;50.826;4.356;2022-07-23T08:36:31;9.45;;;6.65;;
25627;SDS011;40915;50.826;4.356;2022-07-23T08:39:00;10.15;;;7.38;;
25627;SDS011;40915;50.826;4.356;2022-07-23T08:41:28;7.85;;;7.05;;
25627;SDS011;40915;50.826;4.356;2022-07-23T08:43:54;10.20;;;7.55;;
25627;SDS011;40915;50.826;4.356;2022-07-23T08:46:21;11.90;;;8.45;;
25627;SDS011;40915;50.826;4.356;2022-07-23T08:48:50;8.77;;;7.03;;
25627;SDS011;40915;50.826;4.356;2022-07-23T08:51:16;10.88;;;7.03;;
25627;SDS011;40915;50.826;4.356;2022-07-23T08:53:42;11.73;;;7.97;;
25627;SDS011;40915;50.826;4.356;2022-07-23T08:56:09;10.63;;;8.50;;
25627;SDS011;40915;50.826;4.356;2022-07-23T08:58:35;9.50;;;7.88;;
25627;SDS011;40915;50.826;4.356;2022-07-23T09:01:01;11.23;;;7.57;;
25627;SDS011;40915;50.826;4.356;2022-07-23T09:03:32;12.10;;;7.30;;
25627;SDS011;40915;50.826;4.356;2022-07-23T09:06:00;11.23;;;7.97;;
25627;SDS011;40915;50.826;4.356;2022-07-23T09:11:03;11.20;;;7.32;;
25627;SDS011;40915;50.826;4.356;2022-07-23T09:13:35;11.75;;;8.23;;
25627;SDS011;40915;50.826;4.356;2022-07-23T09:18:46;11.02;;;7.97;;
25627;SDS011;40915;50.826;4.356;2022-07-23T09:21:33;10.43;;;7.38;;
25627;SDS011;40915;50.826;4.356;2022-07-23T09:24:00;15.07;;;7.80;;
25627;SDS011;40915;50.826;4.356;2022-07-23T09:26:35;10.80;;;6.68;;
25627;SDS011;40915;50.826;4.356;2022-07-23T09:31:56;12.55;;;8.15;;
25627;SDS011;40915;50.826;4.356;2022-07-23T09:36:51;13.43;;;8.10;;
25627;SDS011;40915;50.826;4.356;2022-07-23T09:39:24;10.35;;;7.25;;
25627;SDS011;40915;50.826;4.356;2022-07-23T09:41:53;12.25;;;8.23;;
25627;SDS011;40915;50.826;4.356;2022-07-23T09:44:19;10.40;;;8.07;;
25627;SDS011;40915;50.826;4.356;2022-07-23T09:46:46;13.45;;;7.53;;
25627;SDS011;40915;50.826;4.356;2022-07-23T09:49:14;9.95;;;7.78;;
25627;SDS011;40915;50.826;4.356;2022-07-23T09:51:56;8.13;;;7.00;;
25627;SDS011;40915;50.826;4.356;2022-07-23T09:56:55;9.82;;;7.22;;
25627;SDS011;40915;50.826;4.356;2022-07-23T09:59:23;10.73;;;6.60;;
25627;SDS011;40915;50.826;4.356;2022-07-23T10:01:55;10.07;;;7.18;;
25627;SDS011;40915;50.826;4.356;2022-07-23T10:04:24;9.93;;;6.90;;
25627;SDS011;40915;50.826;4.356;2022-07-23T10:06:56;8.93;;;7.07;;
25627;SDS011;40915;50.826;4.356;2022-07-23T10:09:26;10.40;;;6.40;;
25627;SDS011;40915;50.826;4.356;2022-07-23T10:11:54;9.50;;;7.38;;
25627;SDS011;40915;50.826;4.356;2022-07-23T10:14:45;10.07;;;5.88;;
25627;SDS011;40915;50.826;4.356;2022-07-23T10:17:11;11.57;;;6.00;;
25627;SDS011;40915;50.826;4.356;2022-07-23T10:19:37;9.73;;;5.30;;
25627;SDS011;40915;50.826;4.356;2022-07-23T10:22:04;8.05;;;5.25;;
25627;SDS011;40915;50.826;4.356;2022-07-23T10:33:04;7.95;;;5.70;;
25627;SDS011;40915;50.826;4.356;2022-07-23T10:41:39;7.32;;;5.95;;
25627;SDS011;40915;50.826;4.356;2022-07-23T10:46:33;7.65;;;4.50;;
25627;SDS011;40915;50.826;4.356;2022-07-23T10:49:35;9.45;;;5.57;;
25627;SDS011;40915;50.826;4.356;2022-07-23T10:57:52;11.05;;;5.13;;
25627;SDS011;40915;50.826;4.356;2022-07-23T11:00:22;15.38;;;6.95;;
25627;SDS011;40915;50.826;4.356;2022-07-23T11:02:50;7.53;;;4.68;;
25627;SDS011;40915;50.826;4.356;2022-07-23T11:05:18;10.98;;;5.88;;
25627;SDS011;40915;50.826;4.356;2022-07-23T11:10:33;6.65;;;5.18;;
25627;SDS011;40915;50.826;4.356;2022-07-23T11:32:11;5.88;;;4.82;;
25627;SDS011;40915;50.826;4.356;2022-07-23T11:34:54;8.80;;;6.15;;
25627;SDS011;40915;50.826;4.356;2022-07-23T11:37:38;8.02;;;6.40;;
25627;SDS011;40915;50.826;4.356;2022-07-23T11:40:10;8.57;;;5.88;;
25627;SDS011;40915;50.826;4.356;2022-07-23T11:42:38;8.85;;;6.40;;
25627;SDS011;40915;50.826;4.356;2022-07-23T11:45:06;8.95;;;6.60;;
25627;SDS011;40915;50.826;4.356;2022-07-23T11:47:33;9.52;;;6.55;;
25627;SDS011;40915;50.826;4.356;2022-07-23T11:50:00;10.68;;;6.78;;
25627;SDS011;40915;50.826;4.356;2022-07-23T11:52:28;9.15;;;6.78;;
25627;SDS011;40915;50.826;4.356;2022-07-23T11:55:08;11.00;;;6.63;;
25627;SDS011;40915;50.826;4.356;2022-07-23T11:57:35;8.40;;;4.90;;
25627;SDS011;40915;50.826;4.356;2022-07-23T12:02:39;7.53;;;6.35;;
25627;SDS011;40915;50.826;4.356;2022-07-23T12:05:06;9.45;;;6.15;;
25627;SDS011;40915;50.826;4.356;2022-07-23T12:12:39;11.25;;;6.45;;
25627;SDS011;40915;50.826;4.356;2022-07-23T12:15:14;9.43;;;6.32;;
25627;SDS011;40915;50.826;4.356;2022-07-23T12:17:42;8.65;;;5.82;;
25627;SDS011;40915;50.826;4.356;2022-07-23T12:20:12;8.25;;;6.07;;
25627;SDS011;40915;50.826;4.356;2022-07-23T12:22:41;10.35;;;6.90;;
25627;SDS011;40915;50.826;4.356;2022-07-23T12:25:22;11.80;;;7.55;;
25627;SDS011;40915;50.826;4.356;2022-07-23T12:28:00;10.18;;;6.00;;
25627;SDS011;40915;50.826;4.356;2022-07-23T12:30:31;12.20;;;7.25;;
25627;SDS011;40915;50.826;4.356;2022-07-23T12:33:03;9.57;;;6.25;;
25627;SDS011;40915;50.826;4.356;2022-07-23T12:35:30;12.77;;;7.40;;
25627;SDS011;40915;50.826;4.356;2022-07-23T12:38:06;12.18;;;7.80;;
25627;SDS011;40915;50.826;4.356;2022-07-23T12:55:49;7.90;;;5.82;;
25627;SDS011;40915;50.826;4.356;2022-07-23T12:58:17;9.35;;;5.03;;
25627;SDS011;40915;50.826;4.356;2022-07-23T13:01:00;6.97;;;4.90;;
25627;SDS011;40915;50.826;4.356;2022-07-23T13:03:40;5.93;;;4.35;;
25627;SDS011;40915;50.826;4.356;2022-07-23T13:06:07;6.25;;;5.00;;
25627;SDS011;40915;50.826;4.356;2022-07-23T13:08:35;7.03;;;4.97;;
25627;SDS011;40915;50.826;4.356;2022-07-23T13:11:03;6.47;;;4.00;;
25627;SDS011;40915;50.826;4.356;2022-07-23T13:13:30;5.20;;;3.65;;
25627;SDS011;40915;50.826;4.356;2022-07-23T13:15:59;6.28;;;3.33;;
25627;SDS011;40915;50.826;4.356;2022-07-23T13:18:25;7.75;;;4.00;;
25627;SDS011;40915;50.826;4.356;2022-07-23T13:20:51;7.63;;;4.30;;
25627;SDS011;40915;50.826;4.356;2022-07-23T13:23:17;6.20;;;4.60;;
25627;SDS011;40915;50.826;4.356;2022-07-23T13:25:44;7.90;;;4.10;;
25627;SDS011;40915;50.826;4.356;2022-07-23T13:28:11;7.95;;;4.82;;
25627;SDS011;40915;50.826;4.356;2022-07-23T13:30:37;6.78;;;4.95;;
25627;SDS011;40915;50.826;4.356;2022-07-23T13:33:03;5.57;;;3.75;;
25627;SDS011;40915;50.826;4.356;2022-07-23T13:35:29;10.60;;;4.45;;
25627;SDS011;40915;50.826;4.356;2022-07-23T13:37:55;6.32;;;4.32;;
25627;SDS011;40915;50.826;4.356;2022-07-23T13:40:21;7.60;;;3.90;;
25627;SDS011;40915;50.826;4.356;2022-07-23T13:42:50;5.78;;;3.70;;
25627;SDS011;40915;50.826;4.356;2022-07-23T13:45:17;9.27;;;3.78;;
25627;SDS011;40915;50.826;4.356;2022-07-23T13:47:43;4.70;;;3.75;;
25627;SDS011;40915;50.826;4.356;2022-07-23T13:50:09;6.47;;;3.90;;
25627;SDS011;40915;50.826;4.356;2022-07-23T13:52:34;4.55;;;4.05;;
25627;SDS011;40915;50.826;4.356;2022-07-23T13:55:04;5.85;;;4.00;;
25627;SDS011;40915;50.826;4.356;2022-07-23T13:57:30;4.70;;;3.38;;
25627;SDS011;40915;50.826;4.356;2022-07-23T13:59:58;6.78;;;3.92;;
25627;SDS011;40915;50.826;4.356;2022-07-23T14:02:24;5.20;;;3.60;;
25627;SDS011;40915;50.826;4.356;2022-07-23T14:04:51;8.18;;;3.78;;
25627;SDS011;40915;50.826;4.356;2022-07-23T14:07:17;5.45;;;3.88;;
25627;SDS011;40915;50.826;4.356;2022-07-23T14:09:43;5.93;;;3.72;;
25627;SDS011;40915;50.826;4.356;2022-07-23T14:12:09;5.15;;;3.55;;
25627;SDS011;40915;50.826;4.356;2022-07-23T14:14:35;6.05;;;3.72;;
25627;SDS011;40915;50.826;4.356;2022-07-23T14:17:01;4.32;;;3.42;;
25627;SDS011;40915;50.826;4.356;2022-07-23T14:19:27;6.30;;;4.22;;
25627;SDS011;40915;50.826;4.356;2022-07-23T14:21:53;6.03;;;3.47;;
25627;SDS011;40915;50.826;4.356;2022-07-23T14:24:19;4.82;;;3.70;;
25627;SDS011;40915;50.826;4.356;2022-07-23T14:26:45;6.35;;;3.80;;
25627;SDS011;40915;50.826;4.356;2022-07-23T14:29:11;4.93;;;3.60;;
25627;SDS011;40915;50.826;4.356;2022-07-23T14:31:37;5.25;;;3.80;;
25627;SDS011;40915;50.826;4.356;2022-07-23T14:34:02;4.60;;;3.60;;
25627;SDS011;40915;50.826;4.356;2022-07-23T14:36:28;4.65;;;3.83;;
25627;SDS011;40915;50.826;4.356;2022-07-23T14:38:54;5.90;;;4.20;;
25627;SDS011;40915;50.826;4.356;2022-07-23T14:41:20;6.03;;;4.05;;
25627;SDS011;40915;50.826;4.356;2022-07-23T14:43:45;6.30;;;4.93;;
25627;SDS011;40915;50.826;4.356;2022-07-23T14:46:12;5.45;;;4.10;;
25627;SDS011;40915;50.826;4.356;2022-07-23T14:48:38;6.78;;;3.88;;
25627;SDS011;40915;50.826;4.356;2022-07-23T14:51:04;6.45;;;3.45;;
25627;SDS011;40915;50.826;4.356;2022-07-23T14:53:30;6.82;;;4.43;;
25627;SDS011;40915;50.826;4.356;2022-07-23T14:55:56;5.18;;;4.13;;
25627;SDS011;40915;50.826;4.356;2022-07-23T14:58:22;5.10;;;4.15;;
25627;SDS011;40915;50.826;4.356;2022-07-23T15:00:48;9.55;;;4.53;;
25627;SDS011;40915;50.826;4.356;2022-07-23T15:03:14;7.30;;;4.38;;
25627;SDS011;40915;50.826;4.356;2022-07-23T15:05:40;6.35;;;4.35;;
25627;SDS011;40915;50.826;4.356;2022-07-23T15:08:06;7.43;;;4.00;;
25627;SDS011;40915;50.826;4.356;2022-07-23T15:10:31;5.07;;;4.20;;
25627;SDS011;40915;50.826;4.356;2022-07-23T15:12:57;8.80;;;4.30;;
25627;SDS011;40915;50.826;4.356;2022-07-23T15:15:22;5.15;;;4.15;;
25627;SDS011;40915;50.826;4.356;2022-07-23T15:17:48;7.00;;;4.18;;
25627;SDS011;40915;50.826;4.356;2022-07-23T15:20:14;5.63;;;3.38;;
25627;SDS011;40915;50.826;4.356;2022-07-23T15:22:39;6.13;;;4.15;;
25627;SDS011;40915;50.826;4.356;2022-07-23T15:25:05;6.70;;;4.13;;
25627;SDS011;40915;50.826;4.356;2022-07-23T15:27:31;4.82;;;3.88;;
25627;SDS011;40915;50.826;4.356;2022-07-23T15:29:57;4.57;;;3.88;;
25627;SDS011;40915;50.826;4.356;2022-07-23T15:32:22;4.60;;;4.10;;
25627;SDS011;40915;50.826;4.356;2022-07-23T15:34:51;10.13;;;4.25;;
25627;SDS011;40915;50.826;4.356;2022-07-23T15:37:17;8.07;;;4.38;;
25627;SDS011;40915;50.826;4.356;2022-07-23T15:39:46;5.20;;;4.00;;
25627;SDS011;40915;50.826;4.356;2022-07-23T15:42:11;6.00;;;4.18;;
25627;SDS011;40915;50.826;4.356;2022-07-23T15:44:37;6.25;;;4.10;;
25627;SDS011;40915;50.826;4.356;2022-07-23T15:47:03;8.43;;;5.00;;
25627;SDS011;40915;50.826;4.356;2022-07-23T15:49:28;5.15;;;4.32;;
25627;SDS011;40915;50.826;4.356;2022-07-23T15:51:54;5.78;;;4.35;;